createdAt,value
2022-11-28T00:00:39.950Z,97904.16
2022-11-28T00:04:43.461Z,97900.25
2022-11-28T00:08:47.508Z,97886.88
2022-11-28T00:12:52.642Z,97873.72
2022-11-28T00:16:56.060Z,97866.53
2022-11-28T00:21:02.656Z,97848.94
2022-11-28T00:25:06.263Z,97840.84
2022-11-28T00:29:12.174Z,97833.53
2022-11-28T00:33:15.281Z,97827.91
2022-11-28T00:37:18.791Z,97823.88
2022-11-28T00:41:24.287Z,97821.31
2022-11-28T00:45:29.422Z,97817.84
2022-11-28T00:49:32.538Z,97818.63
2022-11-28T00:53:36.383Z,97818.53
2022-11-28T00:57:40.163Z,97815.16
2022-11-28T01:01:45.118Z,97810.94
2022-11-28T01:05:48.863Z,97818.75
2022-11-28T01:09:52.396Z,97818.88
2022-11-28T01:13:57.050Z,97813.00
2022-11-28T01:18:02.756Z,97806.13
2022-11-28T01:22:06.970Z,97798.19
2022-11-28T01:26:11.802Z,97796.25
2022-11-28T01:30:15.873Z,97799.94
2022-11-28T01:34:20.288Z,97802.56
2022-11-28T01:38:24.317Z,97805.25
2022-11-28T01:42:27.482Z,97801.69
2022-11-28T01:46:32.173Z,97794.84
2022-11-28T01:50:40.229Z,97797.38
2022-11-28T01:54:47.871Z,97799.19
2022-11-28T01:58:56.663Z,97802.84
2022-11-28T02:03:04.826Z,97776.56
2022-11-28T02:07:10.239Z,97779.63
2022-11-28T02:11:38.176Z,97768.88
2022-11-28T02:16:01.111Z,97760.81
2022-11-28T02:20:51.528Z,97771.72
2022-11-28T02:25:15.890Z,97756.28
2022-11-28T02:29:52.418Z,97754.38
2022-11-28T02:34:01.578Z,97746.44
2022-11-28T02:42:49.383Z,97742.81
2022-11-28T02:46:58.341Z,97749.50
2022-11-28T02:51:11.081Z,97740.72
2022-11-28T02:55:15.580Z,97735.47
2022-11-28T02:59:46.502Z,97732.66
2022-11-28T03:04:03.048Z,97731.00
2022-11-28T03:08:24.167Z,97729.72
2022-11-28T03:12:36.608Z,97723.41
2022-11-28T03:16:49.822Z,97733.72
2022-11-28T03:20:57.675Z,97732.66
2022-11-28T03:25:12.405Z,97718.13
2022-11-28T03:29:23.365Z,97703.28
2022-11-28T03:33:29.814Z,97709.94
2022-11-28T03:37:36.894Z,97714.88
2022-11-28T03:41:46.957Z,97715.34
2022-11-28T03:45:56.867Z,97695.44
2022-11-28T03:50:06.698Z,97681.63
2022-11-28T03:54:15.782Z,97689.09
2022-11-28T03:58:27.001Z,97686.28
2022-11-28T04:02:35.466Z,97694.75
2022-11-28T04:06:52.529Z,97693.00
2022-11-28T04:11:04.017Z,97688.41
2022-11-28T04:15:15.531Z,97689.81
2022-11-28T04:19:24.974Z,97688.78
2022-11-28T04:23:29.347Z,97686.78
2022-11-28T04:27:39.317Z,97688.28
2022-11-28T04:31:46.681Z,97701.06
2022-11-28T04:35:54.103Z,97706.91
2022-11-28T04:39:58.624Z,97698.25
2022-11-28T04:44:06.340Z,97687.69
2022-11-28T04:48:11.721Z,97691.00
2022-11-28T04:52:21.776Z,97683.03
2022-11-28T04:56:31.614Z,97685.38
2022-11-28T05:00:37.117Z,97680.66
2022-11-28T05:04:44.381Z,97674.56
2022-11-28T05:08:48.217Z,97672.69
2022-11-28T05:12:51.670Z,97663.19
2022-11-28T05:16:54.899Z,97672.69
2022-11-28T05:21:02.083Z,97663.31
2022-11-28T05:25:06.393Z,97660.88
2022-11-28T05:29:10.142Z,97657.44
2022-11-28T05:33:14.051Z,97662.59
2022-11-28T05:37:18.453Z,97660.03
2022-11-28T05:41:22.913Z,97655.81
2022-11-28T05:45:26.459Z,97645.50
2022-11-28T05:49:29.590Z,97643.06
2022-11-28T05:53:36.522Z,97643.88
2022-11-28T05:57:40.123Z,97643.06
2022-11-28T06:01:43.255Z,97638.97
2022-11-28T06:05:47.026Z,97649.97
2022-11-28T06:09:52.054Z,97641.41
2022-11-28T06:13:55.408Z,97638.97
2022-11-28T06:17:58.975Z,97649.28
2022-11-28T06:22:02.733Z,97660.38
2022-11-28T06:26:08.969Z,97661.22
2022-11-28T06:30:13.133Z,97664.50
2022-11-28T06:34:16.576Z,97655.81
2022-11-28T06:38:20.460Z,97664.94
2022-11-28T06:42:25.147Z,97672.44
2022-11-28T06:46:28.805Z,97669.63
2022-11-28T06:50:34.333Z,97668.44
2022-11-28T06:54:38.181Z,97674.19
2022-11-28T06:58:43.082Z,97673.13
2022-11-28T07:02:46.665Z,97676.38
2022-11-28T07:06:50.237Z,97665.81
2022-11-28T07:10:54.030Z,97670.06
2022-11-28T07:14:59.355Z,97670.50
2022-11-28T07:19:02.775Z,97665.09
2022-11-28T07:23:07.189Z,97668.41
2022-11-28T07:27:10.784Z,97672.53
2022-11-28T07:31:19.027Z,97676.47
2022-11-28T07:35:22.333Z,97678.00
2022-11-28T07:39:25.939Z,97682.13
2022-11-28T07:43:29.466Z,97687.16
2022-11-28T07:47:35.627Z,97696.16
2022-11-28T07:51:39.031Z,97690.88
2022-11-28T07:55:42.652Z,97696.72
2022-11-28T07:59:46.343Z,97688.28
2022-11-28T08:03:51.535Z,97696.03
2022-11-28T08:07:55.209Z,97685.13
2022-11-28T08:12:00.422Z,97684.28
2022-11-28T08:16:07.152Z,97675.63
2022-11-28T08:20:17.057Z,97665.91
2022-11-28T08:24:20.144Z,97683.44
2022-11-28T08:28:23.662Z,97680.00
2022-11-28T08:32:27.567Z,97673.97
2022-11-28T08:36:32.198Z,97664.53
2022-11-28T08:40:35.827Z,97654.53
2022-11-28T08:44:38.885Z,97647.19
2022-11-28T08:48:43.153Z,97640.75
2022-11-28T08:52:48.140Z,97647.81
2022-11-28T08:56:51.751Z,97642.16
2022-11-28T09:00:54.929Z,97646.69
2022-11-28T09:04:59.585Z,97623.13
2022-11-28T09:09:05.501Z,97639.09
2022-11-28T09:13:10.434Z,97637.34
2022-11-28T09:17:16.028Z,97639.81
2022-11-28T09:21:19.639Z,97637.88
2022-11-28T09:25:24.722Z,97633.28
2022-11-28T09:29:29.940Z,97622.00
2022-11-28T09:33:33.287Z,97612.91
2022-11-28T09:37:36.824Z,97598.78
2022-11-28T09:41:59.757Z,97595.28
2022-11-28T09:46:04.530Z,97593.53
2022-11-28T09:50:16.015Z,97568.63
2022-11-28T09:54:22.593Z,97569.06
2022-11-28T09:58:35.054Z,97567.72
2022-11-28T10:02:50.394Z,97563.22
2022-11-28T10:07:02.958Z,97562.00
2022-11-28T10:11:21.744Z,97558.31
2022-11-28T10:15:47.849Z,97554.78
2022-11-28T10:19:56.056Z,97564.31
2022-11-28T10:24:04.251Z,97559.44
2022-11-28T10:28:11.444Z,97564.88
2022-11-28T10:32:18.642Z,97560.78
2022-11-28T10:36:26.607Z,97556.03
2022-11-28T10:40:41.884Z,97545.28
2022-11-28T10:45:16.347Z,97544.69
2022-11-28T10:49:30.734Z,97554.88
2022-11-28T10:53:46.761Z,97535.66
2022-11-28T10:58:03.294Z,97536.47
2022-11-28T11:02:32.719Z,97544.41
2022-11-28T11:06:47.819Z,97533.63
2022-11-28T11:11:04.570Z,97547.66
2022-11-28T11:15:19.005Z,97547.94
2022-11-28T11:19:27.940Z,97537.59
2022-11-28T11:23:37.951Z,97539.06
2022-11-28T11:27:50.060Z,97531.03
2022-11-28T11:31:54.660Z,97533.47
2022-11-28T11:35:58.566Z,97546.16
2022-11-28T11:40:06.221Z,97534.81
2022-11-28T11:44:35.789Z,97538.06
2022-11-28T11:48:41.173Z,97539.13
2022-11-28T11:52:45.086Z,97536.94
2022-11-28T11:57:05.832Z,97526.28
2022-11-28T12:01:19.683Z,97520.81
2022-11-28T12:05:27.825Z,97529.50
2022-11-28T12:09:38.209Z,97535.19
2022-11-28T12:13:42.864Z,97527.97
2022-11-28T12:17:59.047Z,97520.06
2022-11-28T12:22:13.433Z,97519.34
2022-11-28T12:26:23.053Z,97522.16
2022-11-28T12:30:40.491Z,97541.34
2022-11-28T12:34:55.009Z,97545.97
2022-11-28T12:39:16.588Z,97543.72
2022-11-28T12:43:36.391Z,97541.00
2022-11-28T12:47:48.816Z,97546.94
2022-11-28T12:56:13.349Z,97532.97
2022-11-28T13:00:20.075Z,97541.41
2022-11-28T13:04:50.942Z,97544.81
2022-11-28T13:09:05.353Z,97535.69
2022-11-28T13:13:14.090Z,97535.19
2022-11-28T13:17:31.837Z,97533.97
2022-11-28T13:21:45.389Z,97528.13
2022-11-28T13:25:55.108Z,97521.47
2022-11-28T13:30:07.501Z,97524.34
2022-11-28T13:34:17.428Z,97535.00
2022-11-28T13:38:37.276Z,97533.81
2022-11-28T13:43:04.412Z,97536.16
2022-11-28T13:47:29.049Z,97541.94
2022-11-28T13:51:34.478Z,97546.59
2022-11-28T13:55:48.410Z,97546.06
2022-11-28T13:59:59.134Z,97541.16
2022-11-28T14:04:10.582Z,97548.44
2022-11-28T14:08:29.505Z,97546.13
2022-11-28T14:12:45.623Z,97554.19
2022-11-28T14:17:03.394Z,97560.63
2022-11-28T14:21:13.770Z,97565.25
2022-11-28T14:25:22.015Z,97553.81
2022-11-28T14:29:37.318Z,97549.19
2022-11-28T14:33:42.612Z,97554.94
2022-11-28T14:37:54.226Z,97548.41
2022-11-28T14:42:59.070Z,97559.34
2022-11-28T14:47:15.654Z,97560.72
2022-11-28T14:51:19.567Z,97556.09
2022-11-28T14:55:23.778Z,97565.25
2022-11-28T14:59:32.074Z,97563.22
2022-11-28T15:03:47.227Z,97574.91
2022-11-28T15:08:12.225Z,97571.38
2022-11-28T15:12:23.106Z,97566.34
2022-11-28T15:16:29.661Z,97565.41
2022-11-28T15:20:39.466Z,97570.34
2022-11-28T15:24:42.701Z,97576.31
2022-11-28T15:28:46.124Z,97575.22
2022-11-28T15:32:49.687Z,97575.75
2022-11-28T15:36:56.356Z,97577.94
2022-11-28T15:41:01.411Z,97579.41
2022-11-28T15:45:10.124Z,97587.56
2022-11-28T15:49:25.391Z,97590.44
2022-11-28T15:53:31.241Z,97587.31
2022-11-28T15:57:34.766Z,97586.59
2022-11-28T16:01:38.588Z,97592.75
2022-11-28T16:05:43.939Z,97583.34
2022-11-28T16:10:00.445Z,97574.63
2022-11-28T16:14:09.957Z,97575.59
2022-11-28T16:18:16.723Z,97581.69
2022-11-28T16:22:22.573Z,97585.25
2022-11-28T16:26:48.328Z,97591.25
2022-11-28T16:30:52.639Z,97587.03
2022-11-28T16:35:00.804Z,97576.81
2022-11-28T16:39:11.320Z,97575.16
2022-11-28T16:43:26.220Z,97562.38
2022-11-28T16:47:33.372Z,97571.91
2022-11-28T16:51:39.724Z,97578.97
2022-11-28T16:55:46.932Z,97579.94
2022-11-28T16:59:53.101Z,97576.78
2022-11-28T17:03:58.562Z,97579.75
2022-11-28T17:08:02.840Z,97578.66
2022-11-28T17:12:10.029Z,97575.91
2022-11-28T17:16:20.341Z,97572.22
2022-11-28T17:20:24.456Z,97570.41
2022-11-28T17:24:31.553Z,97578.03
2022-11-28T17:28:34.865Z,97577.84
2022-11-28T17:32:40.048Z,97577.53
2022-11-28T17:36:43.839Z,97569.47
2022-11-28T17:40:47.431Z,97576.81
2022-11-28T17:44:50.565Z,97566.03
2022-11-28T17:48:57.925Z,97566.28
2022-11-28T17:53:01.501Z,97569.94
2022-11-28T17:57:05.164Z,97565.75
2022-11-28T18:01:11.584Z,97567.50
2022-11-28T18:05:16.879Z,97564.25
2022-11-28T18:09:20.398Z,97557.41
2022-11-28T18:13:24.586Z,97557.41
2022-11-28T18:17:27.739Z,97560.00
2022-11-28T18:21:32.859Z,97559.06
2022-11-28T18:25:36.470Z,97560.00
2022-11-28T18:29:40.160Z,97559.88
2022-11-28T18:33:43.662Z,97555.53
2022-11-28T18:37:49.074Z,97558.13
2022-11-28T18:41:53.548Z,97550.38
2022-11-28T18:45:59.736Z,97561.66
2022-11-28T18:50:03.108Z,97558.38
2022-11-28T18:54:08.207Z,97562.81
2022-11-28T18:58:13.563Z,97563.91
2022-11-28T19:02:17.273Z,97567.56
2022-11-28T19:06:22.285Z,97557.75
2022-11-28T19:10:27.060Z,97569.31
2022-11-28T19:14:30.586Z,97574.63
2022-11-28T19:18:33.967Z,97568.53
2022-11-28T19:22:37.485Z,97562.28
2022-11-28T19:26:41.950Z,97565.66
2022-11-28T19:30:46.197Z,97559.00
2022-11-28T19:34:52.889Z,97562.69
2022-11-28T19:38:57.886Z,97560.81
2022-11-28T19:43:04.749Z,97570.19
2022-11-28T19:47:08.267Z,97568.31
2022-11-28T19:51:13.974Z,97569.13
2022-11-28T19:55:18.870Z,97559.31
2022-11-28T19:59:25.387Z,97569.13
2022-11-28T20:03:29.255Z,97565.75
2022-11-28T20:07:32.608Z,97568.44
2022-11-28T20:11:37.100Z,97569.41
2022-11-28T20:15:42.280Z,97571.28
2022-11-28T20:19:46.101Z,97576.69
2022-11-28T20:23:52.186Z,97566.88
2022-11-28T20:27:55.542Z,97573.94
2022-11-28T20:32:00.552Z,97574.44
2022-11-28T20:36:08.134Z,97575.66
2022-11-28T20:40:13.086Z,97573.56
2022-11-28T20:44:17.768Z,97551.69
2022-11-28T20:48:22.834Z,97575.25
2022-11-28T20:52:26.872Z,97580.09
2022-11-28T20:56:41.789Z,97568.59
2022-11-28T21:00:55.408Z,97579.03
2022-11-28T21:05:01.017Z,97574.13
2022-11-28T21:09:04.827Z,97570.03
2022-11-28T21:13:08.300Z,97575.44
2022-11-28T21:17:11.808Z,97576.50
2022-11-28T21:21:34.094Z,97583.53
2022-11-28T21:25:39.863Z,97566.94
2022-11-28T21:29:44.132Z,97579.59
2022-11-28T21:33:51.802Z,97555.47
2022-11-28T21:37:57.305Z,97560.84
2022-11-28T21:42:00.758Z,97563.19
2022-11-28T21:46:05.489Z,97562.13
2022-11-28T21:50:10.050Z,97566.19
2022-11-28T21:54:16.090Z,97563.50
2022-11-28T21:58:23.734Z,97541.16
2022-11-28T22:06:54.611Z,97564.09
2022-11-28T22:11:01.326Z,97560.44
2022-11-28T22:15:04.886Z,97570.63
2022-11-28T22:19:08.460Z,97568.72
2022-11-28T22:23:12.185Z,97566.00
2022-11-28T22:27:17.221Z,97558.19
2022-11-28T22:31:20.901Z,97560.06
2022-11-28T22:35:24.975Z,97558.06
2022-11-28T22:39:28.541Z,97559.34
2022-11-28T22:43:33.068Z,97564.06
2022-11-28T22:47:36.660Z,97563.56
2022-11-28T22:51:41.177Z,97571.78
2022-11-28T22:55:44.700Z,97568.50
2022-11-28T22:59:49.603Z,97557.03
2022-11-28T23:03:53.451Z,97567.78
2022-11-28T23:07:57.053Z,97562.63
2022-11-28T23:12:01.920Z,97565.22
2022-11-28T23:16:15.793Z,97568.50
2022-11-28T23:20:20.800Z,97564.06
2022-11-28T23:24:24.711Z,97557.94
2022-11-28T23:28:30.066Z,97554.28
2022-11-28T23:32:35.056Z,97562.72
2022-11-28T23:36:42.416Z,97548.31
2022-11-28T23:40:46.224Z,97552.28
2022-11-28T23:44:49.983Z,97547.94
2022-11-28T23:48:55.099Z,97553.13
2022-11-28T23:52:58.168Z,97541.25
2022-11-28T23:57:01.734Z,97547.38
